• Join FlightAware (Why Join?)
  • Login
  • US Flag 
01:27AM EDT


 

Airport Tracker/Info


-or-


 

Live Flight TrackerFlight Track Log ✈ UAL1432 ✈ 22-Aug-2013 ✈ KDEN - KORD

Flight Track Log - Related Links

Times and Time Zones

All times are in EDT time to prevent confusion due to time zone crossing. See the UAL1432 flight status page for this flight to view local times or setup timezone preferences in your user account.

Time Position Orientation Groundspeed Altitude Reporting Facility
EDT Latitude Longitude Course Direction KTS MPH feet Rate Location/Type
03:21PM 39.8833 -104.5667 57° Northeast 201 231 7,100  Level Denver TRACON
03:22PM 39.9000 -104.4833 75° East 248 285 8,800 1,620 Climbing Denver TRACON
03:23PM 39.9308 -104.2253 79° East  Level FlightAware Approximate
03:24PM 39.9557 -104.0772 72° East  Level FlightAware Approximate
03:24PM 39.9500 -104.2667 73° East 345 397 12,100  Level Denver TRACON
03:25PM 39.9774 -103.9296 75° East  Level FlightAware Approximate
03:25PM 39.9689 -104.1653 76° East 355 409 14,100  Level Denver Center
03:26PM 40.0077 -103.7846 57° Northeast  Level FlightAware Approximate
03:26PM 39.9850 -104.0328 81° East 374 430 16,200  Level Denver Center
03:27PM 40.0003 -103.8939 82° East 385 443 18,000 1,800 Climbing Denver Center
03:28PM 40.0253 -103.7392 78° East 407 468 20,000 1,740 Climbing Denver Center
03:29PM 40.0489 -103.6042 77° East 407 468 21,600 1,620 Climbing Denver Center
03:30PM 40.0731 -103.4533 78° East 422 486 23,400 1,740 Climbing Denver Center
03:31PM 40.1022 -103.2667 78° East 437 503 25,200 1,500 Climbing Denver Center
03:32PM 40.1269 -103.1075 78° East 446 513 26,600 1,200 Climbing Denver Center
03:33PM 40.1542 -102.9458 78° East 456 525 27,800 1,080 Climbing Denver Center
03:34PM 40.1808 -102.7806 78° East 466 536 28,900 1,020 Climbing Denver Center
03:35PM 40.2069 -102.6097 79° East 471 542 30,000 1,140 Climbing Denver Center
03:36PM 40.2350 -102.4178 79° East 481 554 31,300 1,200 Climbing Denver Center
03:37PM 40.2597 -102.2544 79° East 480 552 32,500 1,080 Climbing Denver Center
03:38PM 40.2883 -102.0633 79° East 481 554 33,600 1,080 Climbing Denver Center
03:39PM 40.3139 -101.9006 78° East 478 550 34,800 420 Climbing Denver Center
03:41PM 40.3373 -101.6880 82° East  Level FlightAware Approximate
03:41PM 40.3781 -101.4989 82° East 471 542 35,000  Level Denver Center
03:42PM 40.4311 -101.3508 65° Northeast 470 541 35,000  Level Denver Center
03:43PM 40.4831 -101.2031 65° Northeast 467 537 35,000  Level Denver Center
03:45PM 40.5431 -101.0306 65° Northeast 467 537 35,000  Level Denver Center
03:46PM 40.5944 -100.8808 66° East 470 541 35,000  Level Denver Center
03:47PM 40.6533 -100.7058 66° East 474 545 35,000  Level Denver Center
03:48PM 40.7142 -100.5322 65° Northeast 475 547 35,000  Level Denver Center
03:49PM 40.7653 -100.3847 65° Northeast 468 539 35,000  Level Denver Center
03:50PM 40.8239 -100.2103 66° East 468 539 35,000  Level Denver Center
03:51PM 40.8744 -100.0603 66° East 469 540 35,000  Level Denver Center
03:52PM 40.9344 -99.8825 66° East 474 545 35,000  Level Denver Center
03:53PM 40.9839 -99.7339 66° East 476 548 35,000  Level Denver Center
03:54PM 41.0372 -99.5731 66° East 477 549 35,000  Level Denver Center
03:55PM 41.0900 -99.4131 66° East 474 545 35,000  Level Denver Center
03:56PM 41.1531 -99.2194 67° East 474 545 35,000  Level Denver Center
03:57PM 41.2000 -99.0781 66° East 471 542 35,000  Level Minneapolis Center
03:58PM 41.2536 -98.9172 66° East 475 547 35,000  Level Minneapolis Center
03:59PM 41.3175 -98.7214 66° East 480 552 35,000  Level Minneapolis Center
04:00PM 41.3650 -98.5589 69° East 476 548 35,000  Level Minneapolis Center
04:01PM 41.4161 -98.3978 67° East 481 554 35,000  Level Minneapolis Center
04:02PM 41.4664 -98.2361 67° East 477 549 35,000  Level Minneapolis Center
04:03PM 41.5186 -98.0711 67° East 474 545 35,000  Level Minneapolis Center
04:04PM 41.5692 -97.9081 67° East 475 547 35,000  Level Minneapolis Center
04:05PM 41.6297 -97.7125 67° East 474 545 35,000  Level Minneapolis Center
04:06PM 41.6803 -97.5486 68° East 477 549 35,000  Level Minneapolis Center
04:07PM 41.7300 -97.3853 68° East 474 545 35,000  Level Minneapolis Center
04:08PM 41.7783 -97.2214 68° East 474 545 35,000  Level Minneapolis Center
04:09PM 41.8292 -97.0561 68° East 478 550 35,000  Level Minneapolis Center
04:10PM 41.8789 -96.8886 68° East 481 554 35,000  Level Minneapolis Center
04:11PM 41.9272 -96.7192 69° East 484 557 35,000  Level Minneapolis Center
04:12PM 41.9589 -96.5003 79° East 493 567 35,000  Level Minneapolis Center
04:13PM 41.9856 -96.3186 79° East 494 568 35,000  Level Minneapolis Center
04:15PM 42.0117 -96.1350 79° East 496 571 35,000  Level Minneapolis Center
04:16PM 42.0375 -95.9542 79° East 491 565 35,000  Level Minneapolis Center
04:17PM 42.0681 -95.7383 79° East 488 562 35,000  Level Minneapolis Center
04:18PM 42.0925 -95.5572 80° East 488 562 35,000  Level Minneapolis Center
04:19PM 42.1181 -95.3806 79° East 483 556 35,000  Level Minneapolis Center
04:20PM 42.1458 -95.1683 80° East 480 552 35,000  Level Minneapolis Center
04:21PM 42.1700 -94.9925 79° East 477 549 35,000  Level Minneapolis Center
04:22PM 42.1928 -94.8172 80° East 476 548 35,000  Level Minneapolis Center
04:23PM 42.2158 -94.6431 80° East 472 543 35,000  Level Minneapolis Center
04:24PM 42.2381 -94.4697 80° East 469 540 35,000  Level Minneapolis Center
04:25PM 42.2608 -94.2967 80° East 469 540 35,000  Level Minneapolis Center
04:26PM 42.2842 -94.1114 80° East 466 536 35,000  Level Minneapolis Center
04:27PM 42.3056 -93.9383 80° East 470 541 35,000  Level Minneapolis Center
04:28PM 42.3319 -93.7314 80° East 473 544 35,000  Level Minneapolis Center
04:29PM 42.3531 -93.5586 81° East 471 542 35,000 -60 Level Minneapolis Center
04:30PM 42.3736 -93.3847 81° East 472 543 34,900 -540 Descending Minneapolis Center
04:31PM 42.3939 -93.2128 81° East 470 541 33,900 -1,020 Descending Minneapolis Center
04:32PM 42.4064 -93.1075 81° East 471 542 33,300 -600 Descending Chicago Center
04:33PM 42.4261 -92.9344 81° East 472 543 33,000 -180 Descending Chicago Center
04:34PM 42.4489 -92.7269 81° East 470 541 33,000 -360 Level Chicago Center
04:35PM 42.4692 -92.5547 81° East 468 539 32,300 -780 Descending Chicago Center
04:36PM 42.4883 -92.3819 81° East 470 541 31,400 -960 Descending Chicago Center
04:37PM 42.5081 -92.2078 81° East 472 543 30,400 -1,020 Descending Chicago Center
04:38PM 42.5244 -92.0319 83° East 477 549 29,400 -720 Descending Chicago Center
04:39PM 42.5244 -91.8272 90° East 463 533 29,000 -240 Descending Chicago Center
04:40PM 42.5256 -91.6600 89° East 455 524 29,000  Level Chicago Center
04:41PM 42.5261 -91.4928 90° East 456 525 29,000  Level Chicago Center
04:42PM 42.5269 -91.2936 90° East 449 517 29,000 -240 Level Chicago Center
04:43PM 42.5264 -91.1244 90° East 455 524 28,600 -720 Descending Chicago Center
04:44PM 42.5253 -90.9564 90° East 452 520 27,600 -960 Descending Chicago Center
04:45PM 42.5258 -90.7911 90° East 445 512 26,600 -1,020 Descending Chicago Center
04:46PM 42.5247 -90.6306 90° East 433 498 25,600 -1,080 Descending Chicago Center
04:47PM 42.5228 -90.4422 91° East 420 483 24,400 -1,080 Descending Chicago Center
04:48PM 42.5214 -90.2861 91° East 419 482 23,400 -1,020 Descending Chicago Center
04:49PM 42.5208 -90.1328 90° East 411 473 22,400 -960 Descending Chicago Center
04:51PM 42.5192 -89.9847 91° East 399 459 21,500 -960 Descending Chicago Center
04:52PM 42.5183 -89.8111 90° East 399 459 20,500 -1,140 Descending Chicago Center
04:53PM 42.5153 -89.6478 91° East 427 491 19,200 -1,260 Descending Chicago Center
04:54PM 42.5008 -89.4908 97° East 422 486 18,000 -600 Descending Chicago Center
04:55PM 42.4825 -89.3397 99° East 409 471 18,000  Level Chicago Center
04:56PM 42.4608 -89.1625 99° East 409 471 18,000  Level Chicago Center
04:57PM 42.4408 -89.0081 100° East 415 478 18,000 -1,380 Level Chicago Center
04:58PM 42.4206 -88.8567 100° East 413 475 15,200 -2,400 Descending Chicago Center
04:59PM 42.4022 -88.7081 99° East 407 468 13,100 -2,400 Descending Chicago Center
05:00PM 42.3811 -88.5578 101° East 363 418 10,200 -1,500 Descending Chicago Center
05:01PM 42.3517 -88.4239 107° East 375 432 10,000 -120 Descending Chicago Center
05:02PM 42.2903 -88.3064 125° Southeast 371 427 10,000 -60 Level Chicago Center
05:03PM 42.2267 -88.1983 128° Southeast 367 422 9,900 -780 Descending Chicago Center
05:04PM 42.1647 -88.1094 133° Southeast 332 382 8,500 -1,500 Descending Chicago Center
05:05PM 42.1000 -88.0333 139° Southeast 326 375 7,000 -780 Descending Chicago TRACON
05:06PM 42.1000 -87.9000 90° East 320 368 7,000  Level Chicago TRACON
05:07PM 42.0833 -87.7833 101° East 309 356 7,000 -600 Level Chicago TRACON
05:08PM 42.0833 -87.6667 90° East 292 336 5,800 -1,440 Descending Chicago TRACON
05:09PM 42.0833 -87.5833 90° East 286 329 4,300 -960 Descending Chicago TRACON
05:10PM 42.0833 -87.4833 90° East 248 285 4,000 -180 Descending Chicago TRACON
05:11PM 42.0500 -87.4333 132° Southeast 237 273 4,000  Level Chicago TRACON
05:12PM 42.0000 -87.4667 206° Southwest 231 266 4,000  Level Chicago TRACON
05:13PM 42.0000 -87.5500 270° West 214 246 4,000  Level Chicago TRACON
05:14PM 42.0000 -87.6167 270° West 183 211 4,000 -240 Level Chicago TRACON
05:15PM 42.0000 -87.6833 270° West 186 214 3,600 -660 Descending Chicago TRACON
05:16PM 42.0000 -87.7500 270° West 181 208 2,700 -900 Descending Chicago TRACON
05:17PM 42.0000 -87.8167 270° West 169 194 1,800 -900 Descending Chicago TRACON
05:18PM 42.0000 -87.8833 270° West 162 186 900 -840 Descending Chicago TRACON